sensor_id;sensor_type;location;lat;lon;timestamp;P1;durP1;ratioP1;P2;durP2;ratioP2
53881;SDS011;39794;55.782;37.452;2023-05-02T00:00:03;3.20;;;2.10;;
53881;SDS011;39794;55.782;37.452;2023-05-02T00:02:32;3.53;;;2.13;;
53881;SDS011;39794;55.782;37.452;2023-05-02T00:05:01;2.65;;;1.83;;
53881;SDS011;39794;55.782;37.452;2023-05-02T00:07:31;2.45;;;1.52;;
53881;SDS011;39794;55.782;37.452;2023-05-02T00:09:59;2.63;;;1.63;;
53881;SDS011;39794;55.782;37.452;2023-05-02T00:12:30;2.38;;;1.50;;
53881;SDS011;39794;55.782;37.452;2023-05-02T00:15:00;2.25;;;1.38;;
53881;SDS011;39794;55.782;37.452;2023-05-02T00:17:30;2.83;;;1.85;;
53881;SDS011;39794;55.782;37.452;2023-05-02T00:20:01;2.88;;;1.83;;
53881;SDS011;39794;55.782;37.452;2023-05-02T00:22:31;3.22;;;1.83;;
53881;SDS011;39794;55.782;37.452;2023-05-02T00:25:00;3.95;;;1.90;;
53881;SDS011;39794;55.782;37.452;2023-05-02T00:27:31;2.50;;;1.90;;
53881;SDS011;39794;55.782;37.452;2023-05-02T00:30:01;2.30;;;1.60;;
53881;SDS011;39794;55.782;37.452;2023-05-02T00:32:30;3.10;;;2.20;;
53881;SDS011;39794;55.782;37.452;2023-05-02T00:34:59;1.70;;;1.55;;
53881;SDS011;39794;55.782;37.452;2023-05-02T00:37:29;4.07;;;1.90;;
53881;SDS011;39794;55.782;37.452;2023-05-02T00:39:58;1.83;;;1.45;;
53881;SDS011;39794;55.782;37.452;2023-05-02T00:42:31;1.95;;;1.50;;
53881;SDS011;39794;55.782;37.452;2023-05-02T00:45:04;2.78;;;2.05;;
53881;SDS011;39794;55.782;37.452;2023-05-02T00:47:33;6.90;;;2.05;;
53881;SDS011;39794;55.782;37.452;2023-05-02T00:50:02;3.08;;;1.83;;
53881;SDS011;39794;55.782;37.452;2023-05-02T00:52:31;3.42;;;1.98;;
53881;SDS011;39794;55.782;37.452;2023-05-02T00:55:00;3.28;;;1.90;;
53881;SDS011;39794;55.782;37.452;2023-05-02T00:57:30;2.58;;;1.73;;
53881;SDS011;39794;55.782;37.452;2023-05-02T01:00:00;2.90;;;1.83;;
53881;SDS011;39794;55.782;37.452;2023-05-02T01:02:36;2.22;;;1.35;;
53881;SDS011;39794;55.782;37.452;2023-05-02T01:05:10;3.85;;;1.45;;
53881;SDS011;39794;55.782;37.452;2023-05-02T01:07:46;2.17;;;1.65;;
53881;SDS011;39794;55.782;37.452;2023-05-02T01:10:24;2.50;;;1.88;;
53881;SDS011;39794;55.782;37.452;2023-05-02T01:12:58;2.17;;;1.38;;
53881;SDS011;39794;55.782;37.452;2023-05-02T01:15:30;1.63;;;1.40;;
53881;SDS011;39794;55.782;37.452;2023-05-02T01:18:01;2.45;;;1.65;;
53881;SDS011;39794;55.782;37.452;2023-05-02T01:20:32;4.85;;;2.05;;
53881;SDS011;39794;55.782;37.452;2023-05-02T01:23:05;1.80;;;1.48;;
53881;SDS011;39794;55.782;37.452;2023-05-02T01:25:39;5.15;;;2.13;;
53881;SDS011;39794;55.782;37.452;2023-05-02T01:28:24;2.65;;;1.85;;
53881;SDS011;39794;55.782;37.452;2023-05-02T01:30:59;3.58;;;2.08;;
53881;SDS011;39794;55.782;37.452;2023-05-02T01:33:29;2.75;;;1.83;;
53881;SDS011;39794;55.782;37.452;2023-05-02T01:35:57;2.50;;;1.55;;
53881;SDS011;39794;55.782;37.452;2023-05-02T01:38:28;2.67;;;2.13;;
53881;SDS011;39794;55.782;37.452;2023-05-02T01:41:00;2.33;;;1.80;;
53881;SDS011;39794;55.782;37.452;2023-05-02T01:43:31;4.05;;;1.30;;
53881;SDS011;39794;55.782;37.452;2023-05-02T01:46:02;2.42;;;1.52;;
53881;SDS011;39794;55.782;37.452;2023-05-02T01:48:34;2.15;;;1.70;;
53881;SDS011;39794;55.782;37.452;2023-05-02T01:51:04;2.33;;;1.50;;
53881;SDS011;39794;55.782;37.452;2023-05-02T01:53:33;1.67;;;1.42;;
53881;SDS011;39794;55.782;37.452;2023-05-02T01:56:03;2.63;;;1.70;;
53881;SDS011;39794;55.782;37.452;2023-05-02T01:58:32;2.50;;;1.70;;
53881;SDS011;39794;55.782;37.452;2023-05-02T02:01:04;2.08;;;1.73;;
53881;SDS011;39794;55.782;37.452;2023-05-02T02:03:33;2.28;;;1.52;;
53881;SDS011;39794;55.782;37.452;2023-05-02T02:06:02;2.47;;;1.67;;
53881;SDS011;39794;55.782;37.452;2023-05-02T02:08:31;2.03;;;1.42;;
53881;SDS011;39794;55.782;37.452;2023-05-02T02:11:00;3.35;;;1.77;;
53881;SDS011;39794;55.782;37.452;2023-05-02T02:13:33;1.92;;;1.30;;
53881;SDS011;39794;55.782;37.452;2023-05-02T02:16:06;2.17;;;1.42;;
53881;SDS011;39794;55.782;37.452;2023-05-02T02:21:08;2.28;;;1.27;;
53881;SDS011;39794;55.782;37.452;2023-05-02T02:23:39;1.45;;;1.30;;
53881;SDS011;39794;55.782;37.452;2023-05-02T02:26:10;1.58;;;1.42;;
53881;SDS011;39794;55.782;37.452;2023-05-02T02:28:41;2.50;;;1.55;;
53881;SDS011;39794;55.782;37.452;2023-05-02T02:31:11;2.75;;;1.42;;
53881;SDS011;39794;55.782;37.452;2023-05-02T02:33:39;2.08;;;1.20;;
53881;SDS011;39794;55.782;37.452;2023-05-02T02:36:10;2.90;;;1.65;;
53881;SDS011;39794;55.782;37.452;2023-05-02T02:38:41;3.88;;;1.50;;
53881;SDS011;39794;55.782;37.452;2023-05-02T02:41:15;2.63;;;1.40;;
53881;SDS011;39794;55.782;37.452;2023-05-02T02:43:49;3.15;;;1.65;;
53881;SDS011;39794;55.782;37.452;2023-05-02T02:46:25;2.40;;;1.33;;
53881;SDS011;39794;55.782;37.452;2023-05-02T02:49:01;2.25;;;1.42;;
53881;SDS011;39794;55.782;37.452;2023-05-02T02:51:37;2.03;;;1.17;;
53881;SDS011;39794;55.782;37.452;2023-05-02T02:54:08;2.10;;;1.10;;
53881;SDS011;39794;55.782;37.452;2023-05-02T02:56:57;1.77;;;1.27;;
53881;SDS011;39794;55.782;37.452;2023-05-02T02:59:31;1.77;;;1.42;;
53881;SDS011;39794;55.782;37.452;2023-05-02T03:02:03;2.08;;;1.75;;
53881;SDS011;39794;55.782;37.452;2023-05-02T03:04:36;2.10;;;1.73;;
53881;SDS011;39794;55.782;37.452;2023-05-02T03:07:06;2.97;;;1.55;;
53881;SDS011;39794;55.782;37.452;2023-05-02T03:09:41;2.28;;;1.60;;
53881;SDS011;39794;55.782;37.452;2023-05-02T03:12:15;3.63;;;1.70;;
53881;SDS011;39794;55.782;37.452;2023-05-02T03:14:44;3.45;;;1.80;;
53881;SDS011;39794;55.782;37.452;2023-05-02T03:17:14;2.55;;;1.80;;
53881;SDS011;39794;55.782;37.452;2023-05-02T03:19:43;6.95;;;1.70;;
53881;SDS011;39794;55.782;37.452;2023-05-02T03:22:12;2.88;;;1.73;;
53881;SDS011;39794;55.782;37.452;2023-05-02T03:24:40;5.65;;;1.65;;
53881;SDS011;39794;55.782;37.452;2023-05-02T03:27:12;4.22;;;2.00;;
53881;SDS011;39794;55.782;37.452;2023-05-02T03:29:41;2.95;;;1.55;;
53881;SDS011;39794;55.782;37.452;2023-05-02T03:32:11;3.88;;;1.80;;
53881;SDS011;39794;55.782;37.452;2023-05-02T03:34:43;5.22;;;1.85;;
53881;SDS011;39794;55.782;37.452;2023-05-02T03:37:12;2.78;;;1.60;;
53881;SDS011;39794;55.782;37.452;2023-05-02T03:39:40;2.33;;;1.70;;
53881;SDS011;39794;55.782;37.452;2023-05-02T03:42:09;2.28;;;1.52;;
53881;SDS011;39794;55.782;37.452;2023-05-02T03:44:38;4.57;;;2.20;;
53881;SDS011;39794;55.782;37.452;2023-05-02T03:47:06;3.03;;;1.70;;
53881;SDS011;39794;55.782;37.452;2023-05-02T03:49:39;2.15;;;1.60;;
53881;SDS011;39794;55.782;37.452;2023-05-02T03:52:09;2.25;;;1.60;;
53881;SDS011;39794;55.782;37.452;2023-05-02T03:54:42;2.30;;;1.73;;
53881;SDS011;39794;55.782;37.452;2023-05-02T03:57:10;8.32;;;1.80;;
53881;SDS011;39794;55.782;37.452;2023-05-02T03:59:39;3.28;;;1.60;;
53881;SDS011;39794;55.782;37.452;2023-05-02T04:02:20;2.17;;;1.77;;
53881;SDS011;39794;55.782;37.452;2023-05-02T04:04:49;6.35;;;1.60;;
53881;SDS011;39794;55.782;37.452;2023-05-02T04:07:22;3.25;;;1.65;;
53881;SDS011;39794;55.782;37.452;2023-05-02T04:10:03;2.28;;;1.60;;
53881;SDS011;39794;55.782;37.452;2023-05-02T04:12:47;2.40;;;1.70;;
53881;SDS011;39794;55.782;37.452;2023-05-02T04:15:17;2.38;;;1.85;;
53881;SDS011;39794;55.782;37.452;2023-05-02T04:17:47;2.75;;;2.00;;
53881;SDS011;39794;55.782;37.452;2023-05-02T04:20:16;2.65;;;1.67;;
53881;SDS011;39794;55.782;37.452;2023-05-02T04:22:49;4.07;;;1.90;;
53881;SDS011;39794;55.782;37.452;2023-05-02T04:25:17;4.70;;;1.80;;
53881;SDS011;39794;55.782;37.452;2023-05-02T04:27:47;2.65;;;1.80;;
53881;SDS011;39794;55.782;37.452;2023-05-02T04:30:18;3.60;;;1.70;;
53881;SDS011;39794;55.782;37.452;2023-05-02T04:33:02;4.75;;;1.92;;
53881;SDS011;39794;55.782;37.452;2023-05-02T04:35:34;4.47;;;1.88;;
53881;SDS011;39794;55.782;37.452;2023-05-02T04:38:05;3.47;;;1.90;;
53881;SDS011;39794;55.782;37.452;2023-05-02T04:40:35;2.53;;;1.80;;
53881;SDS011;39794;55.782;37.452;2023-05-02T04:43:05;6.50;;;2.38;;
53881;SDS011;39794;55.782;37.452;2023-05-02T04:45:39;4.00;;;1.77;;
53881;SDS011;39794;55.782;37.452;2023-05-02T04:48:15;5.85;;;3.20;;
53881;SDS011;39794;55.782;37.452;2023-05-02T04:50:43;4.60;;;2.10;;
53881;SDS011;39794;55.782;37.452;2023-05-02T04:53:14;3.65;;;1.80;;
53881;SDS011;39794;55.782;37.452;2023-05-02T04:55:42;4.55;;;1.90;;
53881;SDS011;39794;55.782;37.452;2023-05-02T04:58:11;4.22;;;1.88;;
53881;SDS011;39794;55.782;37.452;2023-05-02T05:00:40;6.97;;;1.55;;
53881;SDS011;39794;55.782;37.452;2023-05-02T05:03:09;4.13;;;1.60;;
53881;SDS011;39794;55.782;37.452;2023-05-02T05:05:38;4.60;;;2.00;;
53881;SDS011;39794;55.782;37.452;2023-05-02T05:08:11;5.50;;;1.40;;
53881;SDS011;39794;55.782;37.452;2023-05-02T05:10:41;2.97;;;1.60;;
53881;SDS011;39794;55.782;37.452;2023-05-02T05:13:10;1.67;;;1.30;;
53881;SDS011;39794;55.782;37.452;2023-05-02T05:15:41;4.18;;;1.50;;
53881;SDS011;39794;55.782;37.452;2023-05-02T05:18:11;2.00;;;1.42;;
53881;SDS011;39794;55.782;37.452;2023-05-02T05:20:40;2.92;;;1.42;;
53881;SDS011;39794;55.782;37.452;2023-05-02T05:23:10;5.15;;;1.40;;
53881;SDS011;39794;55.782;37.452;2023-05-02T05:25:38;2.35;;;1.30;;
53881;SDS011;39794;55.782;37.452;2023-05-02T05:28:14;3.08;;;1.58;;
53881;SDS011;39794;55.782;37.452;2023-05-02T05:30:45;8.40;;;1.63;;
53881;SDS011;39794;55.782;37.452;2023-05-02T05:33:18;9.43;;;2.40;;
53881;SDS011;39794;55.782;37.452;2023-05-02T05:35:47;5.20;;;2.00;;
53881;SDS011;39794;55.782;37.452;2023-05-02T05:38:16;2.95;;;1.30;;
53881;SDS011;39794;55.782;37.452;2023-05-02T05:40:48;5.50;;;1.70;;
53881;SDS011;39794;55.782;37.452;2023-05-02T05:43:18;4.38;;;2.55;;
53881;SDS011;39794;55.782;37.452;2023-05-02T05:45:47;4.03;;;1.73;;
53881;SDS011;39794;55.782;37.452;2023-05-02T05:48:15;4.88;;;1.55;;
53881;SDS011;39794;55.782;37.452;2023-05-02T05:50:45;5.20;;;2.90;;
53881;SDS011;39794;55.782;37.452;2023-05-02T05:53:14;6.95;;;1.70;;
53881;SDS011;39794;55.782;37.452;2023-05-02T05:55:45;8.68;;;2.08;;
53881;SDS011;39794;55.782;37.452;2023-05-02T05:58:14;3.55;;;1.58;;
53881;SDS011;39794;55.782;37.452;2023-05-02T06:00:45;4.43;;;1.52;;
53881;SDS011;39794;55.782;37.452;2023-05-02T06:03:15;7.05;;;2.20;;
53881;SDS011;39794;55.782;37.452;2023-05-02T06:05:45;4.53;;;1.50;;
53881;SDS011;39794;55.782;37.452;2023-05-02T06:08:13;6.53;;;1.33;;
53881;SDS011;39794;55.782;37.452;2023-05-02T06:10:42;1.15;;;1.05;;
53881;SDS011;39794;55.782;37.452;2023-05-02T06:13:10;2.42;;;1.48;;
53881;SDS011;39794;55.782;37.452;2023-05-02T06:15:41;3.53;;;1.15;;
53881;SDS011;39794;55.782;37.452;2023-05-02T06:18:12;5.03;;;1.50;;
53881;SDS011;39794;55.782;37.452;2023-05-02T06:20:42;8.10;;;1.92;;
53881;SDS011;39794;55.782;37.452;2023-05-02T06:23:10;1.90;;;1.10;;
53881;SDS011;39794;55.782;37.452;2023-05-02T06:25:39;3.22;;;1.08;;
53881;SDS011;39794;55.782;37.452;2023-05-02T06:28:07;2.75;;;1.10;;
53881;SDS011;39794;55.782;37.452;2023-05-02T06:30:36;1.33;;;0.80;;
53881;SDS011;39794;55.782;37.452;2023-05-02T06:33:04;1.55;;;0.73;;
53881;SDS011;39794;55.782;37.452;2023-05-02T06:35:37;1.95;;;0.60;;
53881;SDS011;39794;55.782;37.452;2023-05-02T06:38:05;2.10;;;1.20;;
53881;SDS011;39794;55.782;37.452;2023-05-02T06:40:34;2.47;;;0.90;;
53881;SDS011;39794;55.782;37.452;2023-05-02T06:43:03;2.35;;;0.90;;
53881;SDS011;39794;55.782;37.452;2023-05-02T06:45:31;1.58;;;0.82;;
53881;SDS011;39794;55.782;37.452;2023-05-02T06:48:00;0.82;;;0.63;;
53881;SDS011;39794;55.782;37.452;2023-05-02T06:50:28;1.23;;;0.90;;
53881;SDS011;39794;55.782;37.452;2023-05-02T06:52:58;6.53;;;2.55;;
53881;SDS011;39794;55.782;37.452;2023-05-02T06:55:27;2.10;;;1.08;;
53881;SDS011;39794;55.782;37.452;2023-05-02T06:57:56;0.90;;;0.70;;
53881;SDS011;39794;55.782;37.452;2023-05-02T07:00:24;1.25;;;0.73;;
53881;SDS011;39794;55.782;37.452;2023-05-02T07:02:53;1.73;;;0.70;;
53881;SDS011;39794;55.782;37.452;2023-05-02T07:05:22;2.50;;;0.77;;
53881;SDS011;39794;55.782;37.452;2023-05-02T07:07:50;0.55;;;0.50;;
53881;SDS011;39794;55.782;37.452;2023-05-02T07:10:20;0.30;;;0.30;;
53881;SDS011;39794;55.782;37.452;2023-05-02T07:12:49;3.70;;;0.60;;
53881;SDS011;39794;55.782;37.452;2023-05-02T07:15:18;0.40;;;0.40;;
53881;SDS011;39794;55.782;37.452;2023-05-02T07:17:46;0.55;;;0.50;;
53881;SDS011;39794;55.782;37.452;2023-05-02T07:20:16;1.27;;;0.50;;
53881;SDS011;39794;55.782;37.452;2023-05-02T07:22:45;0.70;;;0.40;;
53881;SDS011;39794;55.782;37.452;2023-05-02T07:25:14;1.38;;;0.60;;
53881;SDS011;39794;55.782;37.452;2023-05-02T07:27:44;0.47;;;0.47;;
53881;SDS011;39794;55.782;37.452;2023-05-02T07:30:12;1.63;;;1.10;;
53881;SDS011;39794;55.782;37.452;2023-05-02T07:32:41;1.35;;;0.60;;
53881;SDS011;39794;55.782;37.452;2023-05-02T07:35:09;1.85;;;0.70;;
53881;SDS011;39794;55.782;37.452;2023-05-02T07:37:38;1.58;;;0.80;;
53881;SDS011;39794;55.782;37.452;2023-05-02T07:40:07;1.10;;;0.65;;
53881;SDS011;39794;55.782;37.452;2023-05-02T07:42:36;2.03;;;0.75;;
53881;SDS011;39794;55.782;37.452;2023-05-02T07:45:08;1.98;;;0.80;;
53881;SDS011;39794;55.782;37.452;2023-05-02T07:47:37;0.77;;;0.65;;
53881;SDS011;39794;55.782;37.452;2023-05-02T07:50:06;2.53;;;0.70;;
53881;SDS011;39794;55.782;37.452;2023-05-02T07:52:35;1.08;;;0.70;;
53881;SDS011;39794;55.782;37.452;2023-05-02T07:55:04;0.95;;;0.73;;
53881;SDS011;39794;55.782;37.452;2023-05-02T07:57:33;1.25;;;0.80;;
53881;SDS011;39794;55.782;37.452;2023-05-02T08:00:01;0.70;;;0.60;;
53881;SDS011;39794;55.782;37.452;2023-05-02T08:02:41;1.17;;;0.70;;
53881;SDS011;39794;55.782;37.452;2023-05-02T08:05:11;1.38;;;0.80;;
53881;SDS011;39794;55.782;37.452;2023-05-02T08:07:39;2.30;;;0.60;;
53881;SDS011;39794;55.782;37.452;2023-05-02T08:10:08;0.77;;;0.63;;
53881;SDS011;39794;55.782;37.452;2023-05-02T08:12:37;2.70;;;0.70;;
53881;SDS011;39794;55.782;37.452;2023-05-02T08:15:07;0.93;;;0.70;;
53881;SDS011;39794;55.782;37.452;2023-05-02T08:17:37;0.55;;;0.50;;
53881;SDS011;39794;55.782;37.452;2023-05-02T08:20:08;2.20;;;0.70;;
53881;SDS011;39794;55.782;37.452;2023-05-02T08:22:37;5.03;;;0.90;;
53881;SDS011;39794;55.782;37.452;2023-05-02T08:25:05;2.05;;;0.77;;
53881;SDS011;39794;55.782;37.452;2023-05-02T08:27:34;1.63;;;0.63;;
53881;SDS011;39794;55.782;37.452;2023-05-02T08:30:03;1.45;;;0.85;;
53881;SDS011;39794;55.782;37.452;2023-05-02T08:32:33;1.90;;;0.40;;
53881;SDS011;39794;55.782;37.452;2023-05-02T08:35:02;1.42;;;0.75;;
53881;SDS011;39794;55.782;37.452;2023-05-02T08:37:33;1.50;;;0.70;;
53881;SDS011;39794;55.782;37.452;2023-05-02T08:40:02;1.23;;;0.70;;
53881;SDS011;39794;55.782;37.452;2023-05-02T08:42:33;1.67;;;0.60;;
53881;SDS011;39794;55.782;37.452;2023-05-02T08:45:02;3.55;;;0.80;;
53881;SDS011;39794;55.782;37.452;2023-05-02T08:47:33;1.98;;;0.43;;
53881;SDS011;39794;55.782;37.452;2023-05-02T08:50:04;2.40;;;0.80;;
53881;SDS011;39794;55.782;37.452;2023-05-02T08:52:35;2.45;;;0.70;;
53881;SDS011;39794;55.782;37.452;2023-05-02T08:55:05;1.70;;;0.70;;
53881;SDS011;39794;55.782;37.452;2023-05-02T08:57:34;7.88;;;1.08;;
53881;SDS011;39794;55.782;37.452;2023-05-02T09:00:03;1.67;;;0.70;;
53881;SDS011;39794;55.782;37.452;2023-05-02T09:05:23;3.65;;;0.82;;
53881;SDS011;39794;55.782;37.452;2023-05-02T09:07:53;0.98;;;0.50;;
53881;SDS011;39794;55.782;37.452;2023-05-02T09:10:21;1.65;;;0.80;;
53881;SDS011;39794;55.782;37.452;2023-05-02T09:12:53;3.58;;;0.93;;
53881;SDS011;39794;55.782;37.452;2023-05-02T09:15:21;0.90;;;0.68;;
53881;SDS011;39794;55.782;37.452;2023-05-02T09:17:50;0.90;;;0.80;;
53881;SDS011;39794;55.782;37.452;2023-05-02T09:20:19;1.60;;;0.63;;
53881;SDS011;39794;55.782;37.452;2023-05-02T09:22:48;2.65;;;0.60;;
53881;SDS011;39794;55.782;37.452;2023-05-02T09:25:19;1.20;;;0.68;;
53881;SDS011;39794;55.782;37.452;2023-05-02T09:27:48;1.35;;;0.50;;
53881;SDS011;39794;55.782;37.452;2023-05-02T09:30:19;1.17;;;0.80;;
53881;SDS011;39794;55.782;37.452;2023-05-02T09:32:48;1.90;;;0.70;;
53881;SDS011;39794;55.782;37.452;2023-05-02T09:35:18;3.92;;;0.77;;
53881;SDS011;39794;55.782;37.452;2023-05-02T09:37:51;2.28;;;1.13;;
53881;SDS011;39794;55.782;37.452;2023-05-02T09:40:22;0.95;;;0.70;;
53881;SDS011;39794;55.782;37.452;2023-05-02T09:42:51;0.70;;;0.70;;
53881;SDS011;39794;55.782;37.452;2023-05-02T09:45:20;1.55;;;0.90;;
53881;SDS011;39794;55.782;37.452;2023-05-02T09:47:49;1.10;;;0.70;;
53881;SDS011;39794;55.782;37.452;2023-05-02T09:50:31;0.98;;;0.70;;
53881;SDS011;39794;55.782;37.452;2023-05-02T09:53:01;3.80;;;0.60;;
53881;SDS011;39794;55.782;37.452;2023-05-02T09:55:34;1.17;;;0.60;;
53881;SDS011;39794;55.782;37.452;2023-05-02T09:58:03;3.08;;;0.90;;
53881;SDS011;39794;55.782;37.452;2023-05-02T10:00:39;1.00;;;0.90;;
53881;SDS011;39794;55.782;37.452;2023-05-02T10:03:09;4.32;;;0.60;;
53881;SDS011;39794;55.782;37.452;2023-05-02T10:05:38;1.33;;;0.70;;
53881;SDS011;39794;55.782;37.452;2023-05-02T10:08:07;1.02;;;0.50;;
53881;SDS011;39794;55.782;37.452;2023-05-02T10:10:38;1.08;;;0.60;;
53881;SDS011;39794;55.782;37.452;2023-05-02T10:13:09;2.45;;;0.60;;
53881;SDS011;39794;55.782;37.452;2023-05-02T10:15:41;2.00;;;0.80;;
53881;SDS011;39794;55.782;37.452;2023-05-02T10:18:14;2.97;;;0.80;;
53881;SDS011;39794;55.782;37.452;2023-05-02T10:20:51;2.80;;;0.50;;
53881;SDS011;39794;55.782;37.452;2023-05-02T10:23:26;1.30;;;0.85;;
53881;SDS011;39794;55.782;37.452;2023-05-02T10:26:00;0.70;;;0.70;;
53881;SDS011;39794;55.782;37.452;2023-05-02T10:28:29;2.33;;;1.00;;
53881;SDS011;39794;55.782;37.452;2023-05-02T10:30:57;1.52;;;1.20;;
53881;SDS011;39794;55.782;37.452;2023-05-02T10:33:28;4.32;;;0.90;;
53881;SDS011;39794;55.782;37.452;2023-05-02T10:35:57;3.30;;;0.80;;
53881;SDS011;39794;55.782;37.452;2023-05-02T10:38:26;2.58;;;1.00;;
53881;SDS011;39794;55.782;37.452;2023-05-02T10:40:56;2.40;;;1.00;;
53881;SDS011;39794;55.782;37.452;2023-05-02T10:43:29;1.08;;;0.80;;
53881;SDS011;39794;55.782;37.452;2023-05-02T10:45:59;2.95;;;1.00;;
53881;SDS011;39794;55.782;37.452;2023-05-02T10:48:29;2.13;;;0.80;;
53881;SDS011;39794;55.782;37.452;2023-05-02T10:50:58;1.20;;;1.10;;
53881;SDS011;39794;55.782;37.452;2023-05-02T10:53:31;0.73;;;0.55;;
53881;SDS011;39794;55.782;37.452;2023-05-02T10:56:06;0.80;;;0.80;;
53881;SDS011;39794;55.782;37.452;2023-05-02T10:58:40;3.33;;;0.80;;
53881;SDS011;39794;55.782;37.452;2023-05-02T11:01:31;1.23;;;0.60;;
53881;SDS011;39794;55.782;37.452;2023-05-02T11:04:07;1.80;;;0.80;;
53881;SDS011;39794;55.782;37.452;2023-05-02T11:06:37;2.33;;;0.85;;
53881;SDS011;39794;55.782;37.452;2023-05-02T11:09:44;1.30;;;0.80;;
53881;SDS011;39794;55.782;37.452;2023-05-02T11:15:15;0.68;;;0.65;;
53881;SDS011;39794;55.782;37.452;2023-05-02T11:18:23;1.13;;;0.60;;
53881;SDS011;39794;55.782;37.452;2023-05-02T11:20:51;5.05;;;1.20;;
53881;SDS011;39794;55.782;37.452;2023-05-02T11:29:51;0.93;;;0.70;;
53881;SDS011;39794;55.782;37.452;2023-05-02T11:32:21;1.48;;;0.77;;
53881;SDS011;39794;55.782;37.452;2023-05-02T11:34:51;1.38;;;0.68;;
53881;SDS011;39794;55.782;37.452;2023-05-02T11:37:21;0.60;;;0.57;;
53881;SDS011;39794;55.782;37.452;2023-05-02T11:39:50;5.18;;;0.60;;
53881;SDS011;39794;55.782;37.452;2023-05-02T11:42:26;0.95;;;0.70;;
53881;SDS011;39794;55.782;37.452;2023-05-02T11:44:55;1.23;;;0.70;;
53881;SDS011;39794;55.782;37.452;2023-05-02T11:47:26;1.15;;;0.63;;
53881;SDS011;39794;55.782;37.452;2023-05-02T11:49:56;1.10;;;0.60;;
53881;SDS011;39794;55.782;37.452;2023-05-02T11:52:26;1.50;;;0.70;;
53881;SDS011;39794;55.782;37.452;2023-05-02T11:54:56;2.58;;;0.70;;
53881;SDS011;39794;55.782;37.452;2023-05-02T11:57:25;1.08;;;0.68;;
53881;SDS011;39794;55.782;37.452;2023-05-02T11:59:54;1.17;;;0.73;;
53881;SDS011;39794;55.782;37.452;2023-05-02T12:02:35;1.63;;;0.68;;
53881;SDS011;39794;55.782;37.452;2023-05-02T12:05:05;3.33;;;0.70;;
53881;SDS011;39794;55.782;37.452;2023-05-02T12:07:35;0.88;;;0.65;;
53881;SDS011;39794;55.782;37.452;2023-05-02T12:10:04;2.88;;;1.02;;
53881;SDS011;39794;55.782;37.452;2023-05-02T12:12:37;2.97;;;0.82;;
53881;SDS011;39794;55.782;37.452;2023-05-02T12:15:07;4.45;;;0.90;;
53881;SDS011;39794;55.782;37.452;2023-05-02T12:17:38;3.03;;;1.10;;
53881;SDS011;39794;55.782;37.452;2023-05-02T12:20:08;4.80;;;0.90;;
53881;SDS011;39794;55.782;37.452;2023-05-02T12:22:38;1.42;;;0.70;;
53881;SDS011;39794;55.782;37.452;2023-05-02T12:25:07;1.88;;;0.70;;
53881;SDS011;39794;55.782;37.452;2023-05-02T12:27:36;1.05;;;0.82;;
53881;SDS011;39794;55.782;37.452;2023-05-02T12:30:05;1.75;;;0.88;;
53881;SDS011;39794;55.782;37.452;2023-05-02T12:32:34;0.93;;;0.60;;
53881;SDS011;39794;55.782;37.452;2023-05-02T12:35:19;1.50;;;0.80;;
53881;SDS011;39794;55.782;37.452;2023-05-02T12:37:49;2.10;;;0.90;;
53881;SDS011;39794;55.782;37.452;2023-05-02T12:40:17;2.05;;;1.00;;
53881;SDS011;39794;55.782;37.452;2023-05-02T12:42:57;3.45;;;1.15;;
53881;SDS011;39794;55.782;37.452;2023-05-02T12:45:27;1.92;;;0.75;;
53881;SDS011;39794;55.782;37.452;2023-05-02T12:47:59;2.72;;;1.10;;
53881;SDS011;39794;55.782;37.452;2023-05-02T12:50:36;4.10;;;1.00;;
53881;SDS011;39794;55.782;37.452;2023-05-02T12:53:05;2.67;;;0.88;;
53881;SDS011;39794;55.782;37.452;2023-05-02T12:55:33;1.60;;;0.80;;
53881;SDS011;39794;55.782;37.452;2023-05-02T12:58:03;2.50;;;1.10;;
53881;SDS011;39794;55.782;37.452;2023-05-02T13:00:33;1.17;;;0.82;;
53881;SDS011;39794;55.782;37.452;2023-05-02T13:03:03;0.98;;;0.60;;
53881;SDS011;39794;55.782;37.452;2023-05-02T13:05:32;2.42;;;0.90;;
53881;SDS011;39794;55.782;37.452;2023-05-02T13:08:02;3.00;;;1.30;;
53881;SDS011;39794;55.782;37.452;2023-05-02T13:10:32;1.92;;;1.20;;
53881;SDS011;39794;55.782;37.452;2023-05-02T13:13:00;1.38;;;1.10;;
53881;SDS011;39794;55.782;37.452;2023-05-02T13:15:30;3.13;;;1.20;;
53881;SDS011;39794;55.782;37.452;2023-05-02T13:17:59;1.23;;;0.80;;
53881;SDS011;39794;55.782;37.452;2023-05-02T13:20:28;2.80;;;1.10;;
53881;SDS011;39794;55.782;37.452;2023-05-02T13:22:56;2.90;;;0.90;;
53881;SDS011;39794;55.782;37.452;2023-05-02T13:25:26;5.50;;;1.60;;
53881;SDS011;39794;55.782;37.452;2023-05-02T13:27:55;1.52;;;0.90;;
53881;SDS011;39794;55.782;37.452;2023-05-02T13:30:23;1.25;;;1.00;;
53881;SDS011;39794;55.782;37.452;2023-05-02T13:32:52;2.10;;;1.00;;
53881;SDS011;39794;55.782;37.452;2023-05-02T13:35:21;2.95;;;0.80;;
53881;SDS011;39794;55.782;37.452;2023-05-02T13:37:50;1.67;;;0.80;;
53881;SDS011;39794;55.782;37.452;2023-05-02T13:40:18;1.67;;;0.95;;
53881;SDS011;39794;55.782;37.452;2023-05-02T13:42:49;2.30;;;0.85;;
53881;SDS011;39794;55.782;37.452;2023-05-02T13:45:18;1.63;;;1.05;;
53881;SDS011;39794;55.782;37.452;2023-05-02T13:47:46;3.05;;;1.27;;
53881;SDS011;39794;55.782;37.452;2023-05-02T13:50:15;1.75;;;1.23;;
53881;SDS011;39794;55.782;37.452;2023-05-02T13:52:46;1.52;;;0.98;;
53881;SDS011;39794;55.782;37.452;2023-05-02T13:55:15;9.15;;;1.08;;
53881;SDS011;39794;55.782;37.452;2023-05-02T13:57:44;2.72;;;1.10;;
53881;SDS011;39794;55.782;37.452;2023-05-02T14:00:15;2.08;;;1.15;;
53881;SDS011;39794;55.782;37.452;2023-05-02T14:02:44;3.03;;;1.10;;
53881;SDS011;39794;55.782;37.452;2023-05-02T14:05:16;3.58;;;0.85;;
53881;SDS011;39794;55.782;37.452;2023-05-02T14:07:47;2.17;;;1.10;;
53881;SDS011;39794;55.782;37.452;2023-05-02T14:10:18;1.30;;;0.98;;
53881;SDS011;39794;55.782;37.452;2023-05-02T14:12:47;1.83;;;1.08;;
53881;SDS011;39794;55.782;37.452;2023-05-02T14:15:17;3.90;;;1.08;;
53881;SDS011;39794;55.782;37.452;2023-05-02T14:17:48;2.50;;;1.20;;
53881;SDS011;39794;55.782;37.452;2023-05-02T14:20:16;2.60;;;1.10;;
53881;SDS011;39794;55.782;37.452;2023-05-02T14:22:45;3.10;;;0.90;;
53881;SDS011;39794;55.782;37.452;2023-05-02T14:25:14;6.32;;;1.55;;
53881;SDS011;39794;55.782;37.452;2023-05-02T14:27:46;2.22;;;0.77;;
53881;SDS011;39794;55.782;37.452;2023-05-02T14:30:14;2.67;;;0.70;;
53881;SDS011;39794;55.782;37.452;2023-05-02T14:32:44;1.17;;;0.80;;
53881;SDS011;39794;55.782;37.452;2023-05-02T14:35:12;2.58;;;0.82;;
53881;SDS011;39794;55.782;37.452;2023-05-02T14:37:41;2.28;;;0.85;;
53881;SDS011;39794;55.782;37.452;2023-05-02T14:40:11;4.95;;;0.95;;
53881;SDS011;39794;55.782;37.452;2023-05-02T14:42:41;0.90;;;0.75;;
53881;SDS011;39794;55.782;37.452;2023-05-02T14:45:10;2.35;;;0.70;;
53881;SDS011;39794;55.782;37.452;2023-05-02T14:47:38;1.58;;;1.02;;
53881;SDS011;39794;55.782;37.452;2023-05-02T14:50:09;3.13;;;0.80;;
53881;SDS011;39794;55.782;37.452;2023-05-02T14:52:38;2.75;;;0.80;;
53881;SDS011;39794;55.782;37.452;2023-05-02T14:55:06;3.38;;;0.98;;
53881;SDS011;39794;55.782;37.452;2023-05-02T14:57:37;3.05;;;0.80;;
53881;SDS011;39794;55.782;37.452;2023-05-02T15:00:06;3.22;;;1.15;;
53881;SDS011;39794;55.782;37.452;2023-05-02T15:02:37;1.50;;;0.77;;
53881;SDS011;39794;55.782;37.452;2023-05-02T15:05:06;1.50;;;1.00;;
53881;SDS011;39794;55.782;37.452;2023-05-02T15:07:39;2.10;;;0.80;;